sensor_id;sensor_type;location;lat;lon;timestamp;pressure;altitude;pressure_sealevel;temperature;humidity
49122;BME280;35529;44.342;25.944;2023-06-22T00:01:06;100976.91;;;20.82;100.00
49122;BME280;35529;44.342;25.944;2023-06-22T00:03:32;100981.03;;;20.89;100.00
49122;BME280;35529;44.342;25.944;2023-06-22T00:05:58;100991.53;;;20.86;100.00
49122;BME280;35529;44.342;25.944;2023-06-22T00:08:25;100998.25;;;20.83;100.00
49122;BME280;35529;44.342;25.944;2023-06-22T00:10:51;101001.22;;;20.87;100.00
49122;BME280;35529;44.342;25.944;2023-06-22T00:13:17;101001.34;;;20.97;100.00
49122;BME280;35529;44.342;25.944;2023-06-22T00:15:43;100996.97;;;20.91;100.00
49122;BME280;35529;44.342;25.944;2023-06-22T00:18:10;100994.25;;;20.91;100.00
49122;BME280;35529;44.342;25.944;2023-06-22T00:20:36;100989.06;;;20.84;100.00
49122;BME280;35529;44.342;25.944;2023-06-22T00:23:03;100987.91;;;20.75;100.00
49122;BME280;35529;44.342;25.944;2023-06-22T00:25:34;100989.38;;;20.66;100.00
49122;BME280;35529;44.342;25.944;2023-06-22T00:28:01;100990.63;;;20.58;100.00
49122;BME280;35529;44.342;25.944;2023-06-22T00:30:27;100980.56;;;20.53;100.00
49122;BME280;35529;44.342;25.944;2023-06-22T00:32:53;100984.34;;;20.52;100.00
49122;BME280;35529;44.342;25.944;2023-06-22T00:35:19;100979.19;;;20.51;100.00
49122;BME280;35529;44.342;25.944;2023-06-22T00:37:45;100978.06;;;20.47;100.00
49122;BME280;35529;44.342;25.944;2023-06-22T00:40:12;100969.41;;;20.45;100.00
49122;BME280;35529;44.342;25.944;2023-06-22T00:42:40;100980.03;;;20.51;100.00
49122;BME280;35529;44.342;25.944;2023-06-22T00:45:06;100964.03;;;20.45;100.00
49122;BME280;35529;44.342;25.944;2023-06-22T00:47:36;100972.66;;;20.47;100.00
49122;BME280;35529;44.342;25.944;2023-06-22T00:50:04;100972.53;;;20.58;100.00
49122;BME280;35529;44.342;25.944;2023-06-22T00:52:32;100970.50;;;20.66;100.00
49122;BME280;35529;44.342;25.944;2023-06-22T00:55:01;100970.50;;;20.66;100.00
49122;BME280;35529;44.342;25.944;2023-06-22T00:57:28;100972.50;;;20.75;100.00
49122;BME280;35529;44.342;25.944;2023-06-22T00:59:54;100975.16;;;20.70;100.00
49122;BME280;35529;44.342;25.944;2023-06-22T01:02:20;100964.34;;;20.70;100.00
49122;BME280;35529;44.342;25.944;2023-06-22T01:04:47;100970.56;;;20.71;100.00
49122;BME280;35529;44.342;25.944;2023-06-22T01:10:03;100957.13;;;20.54;100.00
49122;BME280;35529;44.342;25.944;2023-06-22T01:12:32;100956.06;;;20.55;100.00
49122;BME280;35529;44.342;25.944;2023-06-22T01:15:05;100956.66;;;20.40;100.00
49122;BME280;35529;44.342;25.944;2023-06-22T01:17:34;100961.75;;;20.36;100.00
49122;BME280;35529;44.342;25.944;2023-06-22T01:20:01;100969.03;;;20.36;100.00
49122;BME280;35529;44.342;25.944;2023-06-22T01:22:30;100957.19;;;20.37;100.00
49122;BME280;35529;44.342;25.944;2023-06-22T01:30:21;100976.31;;;19.96;100.00
49122;BME280;35529;44.342;25.944;2023-06-22T01:32:48;100977.13;;;19.97;100.00
49122;BME280;35529;44.342;25.944;2023-06-22T01:35:16;100979.19;;;19.89;100.00
49122;BME280;35529;44.342;25.944;2023-06-22T01:37:42;100973.97;;;19.83;100.00
49122;BME280;35529;44.342;25.944;2023-06-22T01:40:09;100977.59;;;19.76;100.00
49122;BME280;35529;44.342;25.944;2023-06-22T01:42:36;100981.84;;;19.72;100.00
49122;BME280;35529;44.342;25.944;2023-06-22T01:45:02;100984.38;;;19.79;100.00
49122;BME280;35529;44.342;25.944;2023-06-22T01:47:29;100984.16;;;19.81;100.00
49122;BME280;35529;44.342;25.944;2023-06-22T01:49:55;100993.75;;;19.76;100.00
49122;BME280;35529;44.342;25.944;2023-06-22T01:52:22;100986.19;;;19.73;100.00
49122;BME280;35529;44.342;25.944;2023-06-22T01:54:48;100997.22;;;19.72;100.00
49122;BME280;35529;44.342;25.944;2023-06-22T01:57:14;101000.63;;;19.67;100.00
49122;BME280;35529;44.342;25.944;2023-06-22T02:02:09;101002.41;;;19.62;100.00
49122;BME280;35529;44.342;25.944;2023-06-22T02:04:51;101003.88;;;19.52;100.00
49122;BME280;35529;44.342;25.944;2023-06-22T02:07:18;100997.59;;;19.47;100.00
49122;BME280;35529;44.342;25.944;2023-06-22T02:09:45;100993.75;;;19.42;100.00
49122;BME280;35529;44.342;25.944;2023-06-22T02:12:12;101003.75;;;19.30;100.00
49122;BME280;35529;44.342;25.944;2023-06-22T02:14:39;101003.53;;;19.32;100.00
49122;BME280;35529;44.342;25.944;2023-06-22T02:17:07;101004.69;;;19.36;100.00
49122;BME280;35529;44.342;25.944;2023-06-22T02:19:37;101002.38;;;19.28;100.00
49122;BME280;35529;44.342;25.944;2023-06-22T02:22:04;101012.75;;;19.36;100.00
49122;BME280;35529;44.342;25.944;2023-06-22T02:24:31;101016.06;;;19.26;100.00
49122;BME280;35529;44.342;25.944;2023-06-22T02:26:58;101025.53;;;19.29;100.00
49122;BME280;35529;44.342;25.944;2023-06-22T02:29:24;101027.97;;;19.30;100.00
49122;BME280;35529;44.342;25.944;2023-06-22T02:31:50;101027.84;;;19.37;100.00
49122;BME280;35529;44.342;25.944;2023-06-22T02:34:16;101031.06;;;19.51;100.00
49122;BME280;35529;44.342;25.944;2023-06-22T02:36:45;101038.97;;;19.57;100.00
49122;BME280;35529;44.342;25.944;2023-06-22T02:39:23;101036.19;;;19.52;100.00
49122;BME280;35529;44.342;25.944;2023-06-22T02:41:50;101040.59;;;19.41;100.00
49122;BME280;35529;44.342;25.944;2023-06-22T02:44:16;101036.09;;;19.47;100.00
49122;BME280;35529;44.342;25.944;2023-06-22T02:46:42;101037.34;;;19.56;100.00
49122;BME280;35529;44.342;25.944;2023-06-22T02:49:09;101033.69;;;19.63;100.00
49122;BME280;35529;44.342;25.944;2023-06-22T02:51:36;101032.44;;;19.70;100.00
49122;BME280;35529;44.342;25.944;2023-06-22T02:54:05;101035.72;;;19.72;100.00
49122;BME280;35529;44.342;25.944;2023-06-22T02:56:31;101034.84;;;19.84;100.00
49122;BME280;35529;44.342;25.944;2023-06-22T02:58:58;101037.00;;;19.82;100.00
49122;BME280;35529;44.342;25.944;2023-06-22T03:01:30;101042.94;;;19.84;100.00
49122;BME280;35529;44.342;25.944;2023-06-22T03:04:08;101030.38;;;19.89;100.00
49122;BME280;35529;44.342;25.944;2023-06-22T03:06:35;101038.63;;;20.00;100.00
49122;BME280;35529;44.342;25.944;2023-06-22T03:09:02;101038.38;;;20.01;100.00
49122;BME280;35529;44.342;25.944;2023-06-22T03:11:30;101035.28;;;20.09;100.00
49122;BME280;35529;44.342;25.944;2023-06-22T03:13:57;101035.41;;;20.20;100.00
49122;BME280;35529;44.342;25.944;2023-06-22T03:16:23;101021.91;;;20.37;100.00
49122;BME280;35529;44.342;25.944;2023-06-22T03:18:49;101013.09;;;20.41;100.00
49122;BME280;35529;44.342;25.944;2023-06-22T03:21:15;101016.22;;;20.55;100.00
49122;BME280;35529;44.342;25.944;2023-06-22T03:23:42;101015.88;;;20.69;100.00
49122;BME280;35529;44.342;25.944;2023-06-22T03:26:09;101011.41;;;20.80;100.00
49122;BME280;35529;44.342;25.944;2023-06-22T03:28:36;101014.00;;;20.91;100.00
49122;BME280;35529;44.342;25.944;2023-06-22T03:31:03;101007.69;;;21.08;100.00
49122;BME280;35529;44.342;25.944;2023-06-22T03:33:29;101026.97;;;21.17;100.00
49122;BME280;35529;44.342;25.944;2023-06-22T03:35:55;101019.41;;;21.19;100.00
49122;BME280;35529;44.342;25.944;2023-06-22T03:38:21;101024.00;;;21.18;100.00
49122;BME280;35529;44.342;25.944;2023-06-22T03:40:48;101023.19;;;21.18;100.00
49122;BME280;35529;44.342;25.944;2023-06-22T03:43:14;101005.84;;;21.14;100.00
49122;BME280;35529;44.342;25.944;2023-06-22T03:45:40;101002.94;;;21.20;100.00
49122;BME280;35529;44.342;25.944;2023-06-22T03:48:06;101012.22;;;21.30;100.00
49122;BME280;35529;44.342;25.944;2023-06-22T03:50:32;101022.06;;;21.41;100.00
49122;BME280;35529;44.342;25.944;2023-06-22T03:52:58;101020.59;;;21.55;100.00
49122;BME280;35529;44.342;25.944;2023-06-22T03:55:24;101010.09;;;21.59;100.00
49122;BME280;35529;44.342;25.944;2023-06-22T03:57:50;101009.06;;;21.65;100.00
49122;BME280;35529;44.342;25.944;2023-06-22T04:00:16;101015.66;;;21.80;100.00
49122;BME280;35529;44.342;25.944;2023-06-22T04:02:42;101016.81;;;21.89;100.00
49122;BME280;35529;44.342;25.944;2023-06-22T04:05:09;101019.63;;;22.04;100.00
49122;BME280;35529;44.342;25.944;2023-06-22T04:07:35;101022.38;;;22.09;100.00
49122;BME280;35529;44.342;25.944;2023-06-22T04:10:03;101018.63;;;22.21;100.00
49122;BME280;35529;44.342;25.944;2023-06-22T04:12:29;101017.59;;;22.27;100.00
49122;BME280;35529;44.342;25.944;2023-06-22T04:14:55;101014.38;;;22.30;100.00
49122;BME280;35529;44.342;25.944;2023-06-22T04:17:22;101013.69;;;22.45;100.00
49122;BME280;35529;44.342;25.944;2023-06-22T04:19:51;101014.03;;;22.64;100.00
49122;BME280;35529;44.342;25.944;2023-06-22T04:22:17;101021.94;;;22.81;100.00
49122;BME280;35529;44.342;25.944;2023-06-22T04:24:44;101016.84;;;22.95;100.00
49122;BME280;35529;44.342;25.944;2023-06-22T04:27:10;101032.63;;;23.14;100.00
49122;BME280;35529;44.342;25.944;2023-06-22T04:29:36;101032.66;;;23.29;100.00
49122;BME280;35529;44.342;25.944;2023-06-22T04:32:04;101036.47;;;23.43;100.00
49122;BME280;35529;44.342;25.944;2023-06-22T04:34:31;101039.22;;;23.59;100.00
49122;BME280;35529;44.342;25.944;2023-06-22T04:36:57;101031.91;;;23.70;100.00
49122;BME280;35529;44.342;25.944;2023-06-22T04:39:23;101038.13;;;23.86;100.00
49122;BME280;35529;44.342;25.944;2023-06-22T04:41:49;101029.72;;;23.98;100.00
49122;BME280;35529;44.342;25.944;2023-06-22T04:44:17;101033.78;;;24.10;100.00
49122;BME280;35529;44.342;25.944;2023-06-22T04:46:50;101040.78;;;24.27;100.00
49122;BME280;35529;44.342;25.944;2023-06-22T04:49:20;101033.72;;;24.36;100.00
49122;BME280;35529;44.342;25.944;2023-06-22T04:51:47;101031.53;;;24.49;100.00
49122;BME280;35529;44.342;25.944;2023-06-22T04:54:13;101037.72;;;24.59;100.00
49122;BME280;35529;44.342;25.944;2023-06-22T04:56:39;101036.91;;;24.64;100.00
49122;BME280;35529;44.342;25.944;2023-06-22T04:59:06;101039.59;;;24.74;100.00
49122;BME280;35529;44.342;25.944;2023-06-22T05:01:33;101033.28;;;24.84;100.00
49122;BME280;35529;44.342;25.944;2023-06-22T05:04:00;101024.81;;;24.96;100.00
49122;BME280;35529;44.342;25.944;2023-06-22T05:06:27;101031.81;;;25.07;100.00
49122;BME280;35529;44.342;25.944;2023-06-22T05:08:53;101023.56;;;25.23;100.00
49122;BME280;35529;44.342;25.944;2023-06-22T05:11:24;101024.31;;;25.39;100.00
49122;BME280;35529;44.342;25.944;2023-06-22T05:13:50;101020.69;;;25.49;100.00
49122;BME280;35529;44.342;25.944;2023-06-22T05:16:16;101015.19;;;25.59;100.00
49122;BME280;35529;44.342;25.944;2023-06-22T05:18:42;101019.72;;;25.69;100.00
49122;BME280;35529;44.342;25.944;2023-06-22T05:21:09;101009.25;;;25.81;100.00
49122;BME280;35529;44.342;25.944;2023-06-22T05:23:35;101012.69;;;25.92;100.00
49122;BME280;35529;44.342;25.944;2023-06-22T05:26:01;101014.53;;;26.02;100.00
49122;BME280;35529;44.342;25.944;2023-06-22T05:28:27;101022.25;;;26.19;100.00
49122;BME280;35529;44.342;25.944;2023-06-22T05:30:53;101020.47;;;26.33;100.00
49122;BME280;35529;44.342;25.944;2023-06-22T05:33:19;101012.44;;;26.47;100.00
49122;BME280;35529;44.342;25.944;2023-06-22T05:35:45;101009.28;;;26.59;100.00
49122;BME280;35529;44.342;25.944;2023-06-22T05:38:12;101012.47;;;26.66;100.00
49122;BME280;35529;44.342;25.944;2023-06-22T05:40:38;101021.03;;;26.79;100.00
49122;BME280;35529;44.342;25.944;2023-06-22T05:43:04;101029.59;;;26.91;100.00
49122;BME280;35529;44.342;25.944;2023-06-22T05:45:30;101019.94;;;26.99;100.00
49122;BME280;35529;44.342;25.944;2023-06-22T05:47:57;101019.59;;;27.05;100.00
49122;BME280;35529;44.342;25.944;2023-06-22T05:50:23;101009.72;;;27.09;100.00
49122;BME280;35529;44.342;25.944;2023-06-22T05:52:49;101013.38;;;27.19;100.00
49122;BME280;35529;44.342;25.944;2023-06-22T05:55:15;101023.69;;;27.22;100.00
49122;BME280;35529;44.342;25.944;2023-06-22T05:57:41;101017.38;;;27.26;100.00
49122;BME280;35529;44.342;25.944;2023-06-22T06:00:07;101028.19;;;27.32;100.00
49122;BME280;35529;44.342;25.944;2023-06-22T06:02:36;101030.59;;;27.38;100.00
49122;BME280;35529;44.342;25.944;2023-06-22T06:05:02;101033.22;;;27.43;100.00
49122;BME280;35529;44.342;25.944;2023-06-22T06:07:29;101032.84;;;27.50;100.00
49122;BME280;35529;44.342;25.944;2023-06-22T06:09:55;101030.53;;;27.57;100.00
49122;BME280;35529;44.342;25.944;2023-06-22T06:12:21;101033.91;;;27.68;100.00
49122;BME280;35529;44.342;25.944;2023-06-22T06:14:47;101031.00;;;27.79;100.00
49122;BME280;35529;44.342;25.944;2023-06-22T06:17:13;101030.31;;;27.87;100.00
49122;BME280;35529;44.342;25.944;2023-06-22T06:19:40;101040.75;;;27.99;100.00
49122;BME280;35529;44.342;25.944;2023-06-22T06:22:06;101030.19;;;28.11;100.00
49122;BME280;35529;44.342;25.944;2023-06-22T06:24:32;101035.66;;;28.25;100.00
49122;BME280;35529;44.342;25.944;2023-06-22T06:26:58;101029.19;;;28.35;100.00
49122;BME280;35529;44.342;25.944;2023-06-22T06:29:24;101028.69;;;28.33;100.00
49122;BME280;35529;44.342;25.944;2023-06-22T06:31:51;101027.97;;;28.41;100.00
49122;BME280;35529;44.342;25.944;2023-06-22T06:34:17;101026.44;;;28.49;100.00
49122;BME280;35529;44.342;25.944;2023-06-22T06:36:43;101018.84;;;28.59;100.00
49122;BME280;35529;44.342;25.944;2023-06-22T06:39:10;101020.56;;;28.69;100.00
49122;BME280;35529;44.342;25.944;2023-06-22T06:41:36;101015.72;;;28.80;100.00
49122;BME280;35529;44.342;25.944;2023-06-22T06:44:02;101010.94;;;28.86;100.00
49122;BME280;35529;44.342;25.944;2023-06-22T06:46:28;101009.09;;;28.95;100.00
49122;BME280;35529;44.342;25.944;2023-06-22T06:48:54;101009.00;;;29.00;100.00
49122;BME280;35529;44.342;25.944;2023-06-22T06:51:20;101017.56;;;29.07;100.00
49122;BME280;35529;44.342;25.944;2023-06-22T06:53:46;101019.00;;;29.05;100.00
49122;BME280;35529;44.342;25.944;2023-06-22T06:56:12;101020.19;;;29.13;100.00
49122;BME280;35529;44.342;25.944;2023-06-22T06:58:40;101023.28;;;29.20;100.00
49122;BME280;35529;44.342;25.944;2023-06-22T07:01:07;101025.19;;;29.33;100.00
49122;BME280;35529;44.342;25.944;2023-06-22T07:03:33;101020.13;;;29.40;100.00
49122;BME280;35529;44.342;25.944;2023-06-22T07:05:59;101016.75;;;29.43;100.00
49122;BME280;35529;44.342;25.944;2023-06-22T07:08:25;101019.84;;;29.51;100.00
49122;BME280;35529;44.342;25.944;2023-06-22T07:10:52;101021.97;;;29.54;100.00
49122;BME280;35529;44.342;25.944;2023-06-22T07:13:18;101013.59;;;29.59;100.00
49122;BME280;35529;44.342;25.944;2023-06-22T07:15:44;101018.97;;;29.64;100.00
49122;BME280;35529;44.342;25.944;2023-06-22T07:18:10;101015.63;;;29.67;100.00
49122;BME280;35529;44.342;25.944;2023-06-22T07:20:36;101022.44;;;29.79;100.00
49122;BME280;35529;44.342;25.944;2023-06-22T07:23:02;101015.31;;;29.77;100.00
49122;BME280;35529;44.342;25.944;2023-06-22T07:25:29;101018.56;;;29.80;100.00
49122;BME280;35529;44.342;25.944;2023-06-22T07:27:59;101024.97;;;29.75;100.00
49122;BME280;35529;44.342;25.944;2023-06-22T07:30:25;101023.91;;;29.85;100.00
49122;BME280;35529;44.342;25.944;2023-06-22T07:32:51;101021.09;;;29.90;100.00
49122;BME280;35529;44.342;25.944;2023-06-22T07:35:17;101025.41;;;29.91;100.00
49122;BME280;35529;44.342;25.944;2023-06-22T07:37:43;101023.97;;;29.93;100.00
49122;BME280;35529;44.342;25.944;2023-06-22T07:40:10;101017.19;;;29.91;100.00
49122;BME280;35529;44.342;25.944;2023-06-22T07:42:36;101015.94;;;29.97;100.00
49122;BME280;35529;44.342;25.944;2023-06-22T07:45:05;101021.78;;;30.04;100.00
49122;BME280;35529;44.342;25.944;2023-06-22T07:47:34;101023.06;;;30.07;100.00
49122;BME280;35529;44.342;25.944;2023-06-22T07:50:01;101014.06;;;30.06;100.00
49122;BME280;35529;44.342;25.944;2023-06-22T07:52:29;101009.38;;;30.07;100.00
49122;BME280;35529;44.342;25.944;2023-06-22T07:54:55;101006.97;;;30.05;100.00
49122;BME280;35529;44.342;25.944;2023-06-22T07:57:21;101003.44;;;30.05;100.00
49122;BME280;35529;44.342;25.944;2023-06-22T07:59:47;101006.78;;;30.02;100.00
49122;BME280;35529;44.342;25.944;2023-06-22T08:02:13;101017.66;;;30.16;100.00
49122;BME280;35529;44.342;25.944;2023-06-22T08:04:39;101013.28;;;30.15;100.00
49122;BME280;35529;44.342;25.944;2023-06-22T08:07:07;101011.19;;;30.20;100.00
49122;BME280;35529;44.342;25.944;2023-06-22T08:09:33;101017.53;;;30.30;100.00
49122;BME280;35529;44.342;25.944;2023-06-22T08:12:04;101014.19;;;30.41;100.00
49122;BME280;35529;44.342;25.944;2023-06-22T08:14:31;101020.19;;;30.52;100.00
49122;BME280;35529;44.342;25.944;2023-06-22T08:17:02;101023.59;;;30.58;100.00
49122;BME280;35529;44.342;25.944;2023-06-22T08:19:30;101019.06;;;30.53;100.00
49122;BME280;35529;44.342;25.944;2023-06-22T08:21:57;101026.97;;;30.55;100.00
49122;BME280;35529;44.342;25.944;2023-06-22T08:24:33;101021.03;;;30.62;100.00
49122;BME280;35529;44.342;25.944;2023-06-22T08:26:59;101033.28;;;30.64;100.00
49122;BME280;35529;44.342;25.944;2023-06-22T08:29:35;101017.31;;;30.66;100.00
49122;BME280;35529;44.342;25.944;2023-06-22T08:32:03;101020.44;;;30.42;100.00
49122;BME280;35529;44.342;25.944;2023-06-22T08:34:32;101021.59;;;30.41;100.00
49122;BME280;35529;44.342;25.944;2023-06-22T08:37:00;101027.75;;;30.47;100.00
49122;BME280;35529;44.342;25.944;2023-06-22T08:39:29;101023.59;;;30.58;100.00
49122;BME280;35529;44.342;25.944;2023-06-22T08:42:41;101021.06;;;30.70;100.00
49122;BME280;35529;44.342;25.944;2023-06-22T08:45:01;101021.19;;;30.74;100.00
49122;BME280;35529;44.342;25.944;2023-06-22T08:47:31;101014.63;;;30.84;100.00
49122;BME280;35529;44.342;25.944;2023-06-22T08:49:57;101015.88;;;30.86;100.00
49122;BME280;35529;44.342;25.944;2023-06-22T08:52:24;101022.66;;;30.89;100.00
49122;BME280;35529;44.342;25.944;2023-06-22T08:54:53;101010.56;;;30.90;100.00
49122;BME280;35529;44.342;25.944;2023-06-22T08:57:22;101017.84;;;30.95;100.00
49122;BME280;35529;44.342;25.944;2023-06-22T08:59:48;101017.84;;;30.95;100.00
49122;BME280;35529;44.342;25.944;2023-06-22T09:02:18;101012.03;;;30.96;100.00
49122;BME280;35529;44.342;25.944;2023-06-22T09:04:48;101009.81;;;31.07;100.00
49122;BME280;35529;44.342;25.944;2023-06-22T09:07:15;101013.34;;;31.16;100.00
49122;BME280;35529;44.342;25.944;2023-06-22T09:09:50;101010.63;;;31.16;100.00
49122;BME280;35529;44.342;25.944;2023-06-22T09:12:19;101008.81;;;31.12;100.00
49122;BME280;35529;44.342;25.944;2023-06-22T09:14:51;101001.56;;;31.07;100.00
49122;BME280;35529;44.342;25.944;2023-06-22T09:17:21;101003.03;;;31.04;100.00
49122;BME280;35529;44.342;25.944;2023-06-22T09:19:47;101007.22;;;31.11;100.00
49122;BME280;35529;44.342;25.944;2023-06-22T09:22:14;101005.25;;;31.20;100.00
49122;BME280;35529;44.342;25.944;2023-06-22T09:24:41;101002.22;;;31.13;100.00
49122;BME280;35529;44.342;25.944;2023-06-22T09:27:07;100995.28;;;31.15;100.00
49122;BME280;35529;44.342;25.944;2023-06-22T09:29:43;100995.75;;;31.26;100.00
49122;BME280;35529;44.342;25.944;2023-06-22T09:32:10;100993.16;;;31.30;100.00
49122;BME280;35529;44.342;25.944;2023-06-22T09:34:36;100991.06;;;31.35;100.00
49122;BME280;35529;44.342;25.944;2023-06-22T09:37:03;100994.25;;;31.46;100.00
49122;BME280;35529;44.342;25.944;2023-06-22T09:39:32;100989.41;;;31.52;100.00
49122;BME280;35529;44.342;25.944;2023-06-22T09:41:59;100988.91;;;31.58;100.00
49122;BME280;35529;44.342;25.944;2023-06-22T09:44:28;100998.78;;;31.68;100.00
49122;BME280;35529;44.342;25.944;2023-06-22T09:46:57;100992.78;;;31.75;100.00
49122;BME280;35529;44.342;25.944;2023-06-22T09:49:23;100984.88;;;31.65;100.00
49122;BME280;35529;44.342;25.944;2023-06-22T09:51:59;100985.34;;;31.58;100.00
49122;BME280;35529;44.342;25.944;2023-06-22T09:54:25;100978.25;;;31.57;100.00
49122;BME280;35529;44.342;25.944;2023-06-22T09:56:56;100985.03;;;31.68;100.00
49122;BME280;35529;44.342;25.944;2023-06-22T09:59:23;100975.78;;;31.82;100.00
49122;BME280;35529;44.342;25.944;2023-06-22T10:02:08;100977.34;;;31.91;100.00
49122;BME280;35529;44.342;25.944;2023-06-22T10:04:37;100972.16;;;31.99;100.00
49122;BME280;35529;44.342;25.944;2023-06-22T10:07:06;100968.88;;;32.05;100.00
49122;BME280;35529;44.342;25.944;2023-06-22T10:09:36;100976.81;;;32.07;100.00
49122;BME280;35529;44.342;25.944;2023-06-22T10:12:05;100984.56;;;32.05;100.00
49122;BME280;35529;44.342;25.944;2023-06-22T10:14:37;100982.31;;;32.07;100.00
49122;BME280;35529;44.342;25.944;2023-06-22T10:17:07;100978.16;;;31.92;100.00
49122;BME280;35529;44.342;25.944;2023-06-22T10:19:35;100977.97;;;31.97;100.00
49122;BME280;35529;44.342;25.944;2023-06-22T10:22:05;100975.84;;;32.03;100.00
49122;BME280;35529;44.342;25.944;2023-06-22T10:24:32;100972.72;;;32.13;100.00
49122;BME280;35529;44.342;25.944;2023-06-22T10:27:01;100964.16;;;32.15;100.00
49122;BME280;35529;44.342;25.944;2023-06-22T10:29:30;100962.88;;;32.21;100.00
49122;BME280;35529;44.342;25.944;2023-06-22T10:32:01;100957.84;;;32.44;100.00
49122;BME280;35529;44.342;25.944;2023-06-22T10:34:49;100950.16;;;32.58;100.00
49122;BME280;35529;44.342;25.944;2023-06-22T10:37:19;100951.34;;;32.70;100.00
49122;BME280;35529;44.342;25.944;2023-06-22T10:39:45;100945.84;;;32.70;100.00
49122;BME280;35529;44.342;25.944;2023-06-22T10:42:15;100944.50;;;32.85;100.00
49122;BME280;35529;44.342;25.944;2023-06-22T10:44:41;100943.41;;;32.98;100.00
49122;BME280;35529;44.342;25.944;2023-06-22T10:47:10;100943.78;;;33.09;100.00
49122;BME280;35529;44.342;25.944;2023-06-22T10:49:39;100935.56;;;33.21;100.00
49122;BME280;35529;44.342;25.944;2023-06-22T10:52:11;100936.75;;;33.33;100.00
49122;BME280;35529;44.342;25.944;2023-06-22T10:54:37;100925.41;;;33.34;100.00
49122;BME280;35529;44.342;25.944;2023-06-22T10:57:04;100919.94;;;33.47;100.00
49122;BME280;35529;44.342;25.944;2023-06-22T10:59:30;100924.88;;;33.53;100.00
49122;BME280;35529;44.342;25.944;2023-06-22T11:01:57;100919.72;;;33.52;100.00
49122;BME280;35529;44.342;25.944;2023-06-22T11:04:25;100916.97;;;33.64;100.00
49122;BME280;35529;44.342;25.944;2023-06-22T11:06:56;100916.75;;;33.69;100.00
49122;BME280;35529;44.342;25.944;2023-06-22T11:09:24;100916.03;;;33.72;100.00
49122;BME280;35529;44.342;25.944;2023-06-22T11:11:55;100908.25;;;33.74;100.00
49122;BME280;35529;44.342;25.944;2023-06-22T11:14:22;100913.88;;;33.78;100.00
49122;BME280;35529;44.342;25.944;2023-06-22T11:16:51;100910.88;;;33.96;100.00
49122;BME280;35529;44.342;25.944;2023-06-22T11:19:18;100909.88;;;34.00;100.00
49122;BME280;35529;44.342;25.944;2023-06-22T11:21:44;100916.25;;;34.17;100.00
49122;BME280;35529;44.342;25.944;2023-06-22T11:24:11;100906.63;;;34.23;100.00
49122;BME280;35529;44.342;25.944;2023-06-22T11:26:40;100919.50;;;34.31;100.00
49122;BME280;35529;44.342;25.944;2023-06-22T11:29:09;100909.56;;;34.55;100.00
49122;BME280;35529;44.342;25.944;2023-06-22T11:31:45;100914.31;;;34.70;100.00
49122;BME280;35529;44.342;25.944;2023-06-22T11:34:11;100905.50;;;34.93;100.00
49122;BME280;35529;44.342;25.944;2023-06-22T11:36:46;100905.63;;;35.13;100.00
49122;BME280;35529;44.342;25.944;2023-06-22T11:39:15;100903.44;;;35.34;100.00
49122;BME280;35529;44.342;25.944;2023-06-22T11:41:48;100907.00;;;35.51;100.00
49122;BME280;35529;44.342;25.944;2023-06-22T11:44:18;100906.75;;;35.40;85.60
49122;BME280;35529;44.342;25.944;2023-06-22T11:46:44;100903.09;;;35.52;90.83
49122;BME280;35529;44.342;25.944;2023-06-22T11:49:18;100909.91;;;35.74;100.00
49122;BME280;35529;44.342;25.944;2023-06-22T11:51:47;100895.84;;;35.79;80.81
49122;BME280;35529;44.342;25.944;2023-06-22T11:54:16;100896.66;;;35.80;100.00
49122;BME280;35529;44.342;25.944;2023-06-22T11:56:45;100892.19;;;35.91;85.41
49122;BME280;35529;44.342;25.944;2023-06-22T11:59:14;100896.06;;;36.06;93.00
49122;BME280;35529;44.342;25.944;2023-06-22T12:01:44;100899.50;;;35.83;76.63
49122;BME280;35529;44.342;25.944;2023-06-22T12:04:16;100887.31;;;35.84;94.50
49122;BME280;35529;44.342;25.944;2023-06-22T12:07:02;100891.22;;;36.19;76.70
49122;BME280;35529;44.342;25.944;2023-06-22T12:09:34;100888.50;;;36.58;78.47
49122;BME280;35529;44.342;25.944;2023-06-22T12:14:37;100892.13;;;36.62;76.40
49122;BME280;35529;44.342;25.944;2023-06-22T12:17:09;100888.75;;;36.14;87.82
49122;BME280;35529;44.342;25.944;2023-06-22T12:19:38;100887.03;;;35.89;81.19
49122;BME280;35529;44.342;25.944;2023-06-22T12:22:07;100882.75;;;35.92;88.74
49122;BME280;35529;44.342;25.944;2023-06-22T12:24:36;100886.75;;;35.95;100.00
49122;BME280;35529;44.342;25.944;2023-06-22T12:27:03;100867.91;;;36.00;100.00
49122;BME280;35529;44.342;25.944;2023-06-22T12:29:32;100875.22;;;36.28;79.57
49122;BME280;35529;44.342;25.944;2023-06-22T12:32:05;100871.31;;;36.49;87.45
49122;BME280;35529;44.342;25.944;2023-06-22T12:34:32;100873.34;;;36.71;92.37
49122;BME280;35529;44.342;25.944;2023-06-22T12:37:00;100871.44;;;36.95;88.59
49122;BME280;35529;44.342;25.944;2023-06-22T12:39:45;100877.28;;;37.13;96.95
49122;BME280;35529;44.342;25.944;2023-06-22T12:45:29;100866.81;;;37.26;100.00
49122;BME280;35529;44.342;25.944;2023-06-22T12:48:12;100867.25;;;37.28;100.00
49122;BME280;35529;44.342;25.944;2023-06-22T12:50:52;100869.41;;;37.38;100.00